Time;durP1;ratioP1;P1;durP2;ratioP2;P2;SDS_P1;SDS_P2;PMS_P1;PMS_P2;Temp;Humidity;BMP_temperature;BMP_pressure;BME280_temperature;BME280_humidity;BME280_pressure;Samples;Min_cycle;Max_cycle;Signal;HPM_P1;HPM_P2
2022/03/08 00:00:21;;;;;;;4.93;3.28;;;4.10;57.40;;;;;;5025407;28;20026;-66
2022/03/08 00:02:47;;;;;;;5.38;3.28;;;4.10;56.80;;;;;;5027702;28;20457;-66
2022/03/08 00:05:12;;;;;;;5.53;3.63;;;4.10;56.70;;;;;;5031304;28;20429;-66
2022/03/08 00:07:38;;;;;;;4.22;3.50;;;4.10;56.60;;;;;;5031967;28;20056;-66
2022/03/08 00:10:06;;;;;;;4.30;3.30;;;4.10;56.60;;;;;;5029708;28;20442;-66
2022/03/08 00:12:31;;;;;;;5.97;3.33;;;4.10;56.60;;;;;;5029358;28;20503;-65
2022/03/08 00:14:57;;;;;;;4.63;3.45;;;4.10;56.40;;;;;;5029415;28;20053;-66
2022/03/08 00:17:22;;;;;;;6.53;4.55;;;4.10;56.60;;;;;;5031839;28;20108;-66
2022/03/08 00:19:48;;;;;;;6.07;4.50;;;4.00;56.90;;;;;;5028908;28;20049;-66
2022/03/08 00:22:14;;;;;;;5.28;3.78;;;4.00;57.00;;;;;;5031705;28;20168;-66
2022/03/08 00:24:39;;;;;;;5.35;3.33;;;3.90;57.00;;;;;;5032070;28;20049;-66
2022/03/08 00:27:05;;;;;;;6.47;3.70;;;3.90;56.80;;;;;;5032029;28;20380;-66
2022/03/08 00:29:31;;;;;;;5.35;3.75;;;3.90;56.90;;;;;;5026057;28;20028;-66
2022/03/08 00:31:56;;;;;;;6.60;3.65;;;3.90;56.80;;;;;;5029208;28;20044;-66
2022/03/08 00:34:22;;;;;;;4.95;3.30;;;3.90;56.80;;;;;;5031587;28;20543;-66
2022/03/08 00:36:47;;;;;;;5.15;3.45;;;3.90;56.90;;;;;;5028859;28;20018;-65
2022/03/08 00:39:13;;;;;;;5.05;3.70;;;3.80;56.90;;;;;;5031487;28;20057;-66
2022/03/08 00:41:38;;;;;;;5.13;3.10;;;3.90;56.90;;;;;;5029711;28;20312;-66
2022/03/08 00:44:07;;;;;;;4.97;3.47;;;3.80;57.30;;;;;;5027673;28;20552;-66
2022/03/08 00:46:33;;;;;;;4.85;3.38;;;3.80;56.60;;;;;;5025882;28;20109;-65
2022/03/08 00:48:58;;;;;;;5.78;3.72;;;3.80;56.70;;;;;;5031264;28;20132;-66
2022/03/08 00:51:24;;;;;;;4.88;3.10;;;3.80;56.90;;;;;;5031191;28;20021;-66
2022/03/08 00:53:51;;;;;;;6.65;4.22;;;3.70;56.90;;;;;;5031032;28;20025;-66
2022/03/08 00:56:16;;;;;;;5.47;3.15;;;3.70;56.80;;;;;;5031163;28;20481;-66
2022/03/08 00:58:42;;;;;;;4.43;2.83;;;3.70;56.90;;;;;;5031048;28;20041;-66
2022/03/08 01:01:08;;;;;;;4.68;2.78;;;3.70;56.80;;;;;;5031448;28;20477;-66
2022/03/08 01:03:34;;;;;;;4.50;3.30;;;3.70;56.70;;;;;;5031594;28;20100;-66
2022/03/08 01:05:59;;;;;;;3.15;2.45;;;3.70;56.80;;;;;;5031676;28;20108;-66
2022/03/08 01:08:25;;;;;;;3.97;2.67;;;3.70;56.60;;;;;;5025461;28;20469;-67
2022/03/08 01:10:50;;;;;;;3.72;2.70;;;3.70;56.50;;;;;;5030846;28;20053;-66
2022/03/08 01:13:16;;;;;;;6.90;4.13;;;3.60;56.50;;;;;;5013021;28;20075;-66
2022/03/08 01:15:42;;;;;;;3.63;2.83;;;3.60;56.70;;;;;;5030637;28;20064;-66
2022/03/08 01:18:07;;;;;;;5.63;3.90;;;3.60;56.70;;;;;;5030398;28;20033;-66
2022/03/08 01:20:33;;;;;;;5.38;3.47;;;3.60;57.00;;;;;;5012996;28;20043;-66
2022/03/08 01:22:58;;;;;;;5.07;3.47;;;3.50;57.00;;;;;;5027972;28;20033;-66
2022/03/08 01:25:24;;;;;;;5.32;3.58;;;3.50;56.90;;;;;;5030579;28;20022;-66
2022/03/08 01:27:50;;;;;;;5.85;3.40;;;3.50;57.00;;;;;;5030444;28;20432;-66
2022/03/08 01:30:18;;;;;;;4.93;2.72;;;3.50;56.90;;;;;;5030475;28;20021;-66
2022/03/08 01:32:43;;;;;;;4.43;2.45;;;3.50;56.80;;;;;;5027714;28;20030;-66
2022/03/08 01:35:10;;;;;;;6.13;3.40;;;3.50;56.60;;;;;;5030400;28;20032;-66
2022/03/08 01:37:36;;;;;;;3.70;2.88;;;3.50;56.70;;;;;;5030483;28;20405;-66
2022/03/08 01:40:04;;;;;;;4.50;3.05;;;3.50;56.70;;;;;;5028613;28;20018;-66
2022/03/08 01:42:30;;;;;;;3.67;2.67;;;3.50;56.70;;;;;;5030092;28;20053;-66
2022/03/08 01:44:55;;;;;;;3.92;2.80;;;3.40;56.60;;;;;;5030530;28;20064;-66
2022/03/08 01:47:24;;;;;;;4.70;2.28;;;3.40;56.50;;;;;;5030298;28;20120;-66
2022/03/08 01:49:51;;;;;;;3.40;2.50;;;3.50;56.40;;;;;;5024422;28;20505;-66
2022/03/08 01:52:19;;;;;;;6.90;3.00;;;3.40;56.30;;;;;;5027492;28;20036;-66
2022/03/08 01:54:45;;;;;;;3.70;2.95;;;3.40;56.40;;;;;;5030165;28;20033;-66
2022/03/08 01:57:12;;;;;;;3.83;2.13;;;3.40;56.60;;;;;;5012178;28;20033;-66
2022/03/08 01:59:38;;;;;;;3.85;2.63;;;3.40;56.50;;;;;;5027172;28;20032;-65
2022/03/08 02:02:04;;;;;;;3.70;2.58;;;3.30;56.50;;;;;;5006774;28;20108;-66
2022/03/08 02:04:30;;;;;;;3.92;2.40;;;3.30;56.50;;;;;;5029678;28;20025;-66
2022/03/08 02:06:55;;;;;;;3.88;2.80;;;3.30;56.50;;;;;;5029899;28;20029;-66
2022/03/08 02:09:21;;;;;;;3.60;2.63;;;3.30;56.60;;;;;;5030118;28;20025;-66
2022/03/08 02:11:47;;;;;;;4.03;2.25;;;3.30;56.50;;;;;;5030184;28;20153;-66
2022/03/08 02:14:18;;;;;;;4.95;3.40;;;3.30;56.40;;;;;;5029853;28;20030;-65
2022/03/08 02:16:44;;;;;;;4.85;2.40;;;3.20;56.70;;;;;;5029693;28;20497;-66
2022/03/08 02:19:11;;;;;;;3.55;2.10;;;3.20;56.80;;;;;;5029539;28;20037;-66
2022/03/08 02:21:37;;;;;;;3.90;2.58;;;3.20;56.70;;;;;;5011844;28;20044;-65
2022/03/08 02:24:03;;;;;;;3.42;1.98;;;3.20;56.90;;;;;;5026961;28;20025;-66
2022/03/08 02:26:28;;;;;;;5.05;3.17;;;3.20;56.80;;;;;;5025908;28;20022;-66
2022/03/08 02:28:55;;;;;;;3.85;2.50;;;3.20;57.10;;;;;;5026859;28;20496;-66
2022/03/08 02:31:21;;;;;;;4.00;2.80;;;3.20;56.90;;;;;;5029563;28;20021;-66
2022/03/08 02:33:46;;;;;;;5.05;2.47;;;3.10;56.80;;;;;;5027057;28;20120;-66
2022/03/08 02:36:12;;;;;;;4.53;3.28;;;3.10;56.90;;;;;;5029174;28;20022;-66
2022/03/08 02:38:37;;;;;;;6.65;2.80;;;3.10;57.00;;;;;;5029387;28;20099;-66
2022/03/08 02:41:03;;;;;;;3.90;2.78;;;3.10;56.90;;;;;;5029364;28;20621;-66
2022/03/08 02:43:28;;;;;;;5.72;3.72;;;3.10;56.90;;;;;;5029173;28;20449;-66
2022/03/08 02:45:54;;;;;;;5.32;3.47;;;3.10;57.30;;;;;;5029473;28;20378;-66
2022/03/08 02:48:20;;;;;;;5.20;3.70;;;3.00;57.30;;;;;;5029031;28;20041;-64
2022/03/08 02:50:45;;;;;;;10.02;4.05;;;3.00;57.80;;;;;;5029125;28;20060;-66
2022/03/08 02:53:11;;;;;;;6.25;3.97;;;2.90;57.90;;;;;;5028804;28;20021;-66
2022/03/08 02:55:37;;;;;;;6.05;3.90;;;2.90;58.10;;;;;;5026424;28;20025;-66
2022/03/08 02:58:04;;;;;;;6.13;3.80;;;2.90;58.30;;;;;;5028925;28;20476;-65
2022/03/08 03:00:31;;;;;;;5.88;4.00;;;2.90;58.30;;;;;;5028472;28;20083;-66
2022/03/08 03:02:57;;;;;;;8.70;3.92;;;2.90;57.90;;;;;;5026501;28;20026;-65
2022/03/08 03:05:23;;;;;;;7.88;4.13;;;2.90;58.00;;;;;;5005602;28;20070;-66
2022/03/08 03:07:48;;;;;;;7.45;4.03;;;2.90;57.90;;;;;;5029242;28;20052;-66
2022/03/08 03:10:17;;;;;;;6.97;4.15;;;2.90;58.00;;;;;;5011161;28;20030;-66
2022/03/08 03:12:43;;;;;;;5.60;3.97;;;3.00;58.10;;;;;;5028446;28;20068;-66
2022/03/08 03:15:12;;;;;;;7.35;4.05;;;3.00;57.90;;;;;;5007952;28;20057;-66
2022/03/08 03:17:38;;;;;;;6.33;4.23;;;3.00;58.00;;;;;;5012199;28;20029;-66
2022/03/08 03:20:06;;;;;;;5.90;4.10;;;2.90;58.10;;;;;;5011129;28;20471;-66
2022/03/08 03:22:31;;;;;;;5.43;3.97;;;3.00;58.10;;;;;;5028283;28;20107;-66
2022/03/08 03:24:57;;;;;;;4.97;3.65;;;3.00;58.00;;;;;;5028336;28;20469;-66
2022/03/08 03:27:22;;;;;;;6.07;4.05;;;3.00;58.00;;;;;;5025748;28;20026;-66
2022/03/08 03:29:48;;;;;;;5.15;3.10;;;3.00;58.00;;;;;;5028231;28;20201;-66
2022/03/08 03:32:14;;;;;;;5.65;3.35;;;3.00;57.90;;;;;;5010783;28;20030;-66
2022/03/08 03:34:39;;;;;;;5.15;3.67;;;3.00;57.80;;;;;;5028081;28;20037;-66
2022/03/08 03:37:05;;;;;;;5.97;3.92;;;3.00;57.70;;;;;;5009720;28;20022;-66
2022/03/08 03:39:31;;;;;;;5.65;3.92;;;3.00;57.60;;;;;;5010258;28;20068;-66
2022/03/08 03:41:56;;;;;;;5.30;3.65;;;3.00;57.90;;;;;;5010484;28;20083;-66
2022/03/08 03:44:22;;;;;;;7.15;3.70;;;3.00;57.80;;;;;;5028348;28;20473;-66
2022/03/08 03:46:48;;;;;;;5.78;3.60;;;3.00;57.80;;;;;;5028537;28;20029;-66
2022/03/08 03:49:14;;;;;;;5.18;3.55;;;3.00;57.80;;;;;;5028206;28;20052;-66
2022/03/08 03:51:40;;;;;;;5.22;3.38;;;3.00;57.70;;;;;;5028093;28;20028;-66
2022/03/08 03:54:05;;;;;;;5.93;3.38;;;3.00;57.60;;;;;;5027989;28;20021;-66
2022/03/08 03:56:31;;;;;;;4.88;3.00;;;3.00;57.60;;;;;;5025239;28;20037;-68
2022/03/08 03:58:56;;;;;;;4.60;3.05;;;3.00;57.60;;;;;;5028188;28;20033;-66
2022/03/08 04:01:22;;;;;;;5.90;3.65;;;3.00;57.60;;;;;;5025283;28;20041;-66
2022/03/08 04:03:47;;;;;;;6.05;4.07;;;3.00;57.60;;;;;;5028024;28;20690;-66
2022/03/08 04:06:13;;;;;;;4.38;3.33;;;3.00;57.60;;;;;;5028084;28;20550;-67
2022/03/08 04:08:38;;;;;;;5.75;3.47;;;3.00;57.60;;;;;;5007371;28;20512;-66
2022/03/08 04:11:04;;;;;;;4.25;3.03;;;3.00;57.90;;;;;;5027845;28;20025;-66
2022/03/08 04:13:30;;;;;;;5.13;3.05;;;2.90;57.90;;;;;;5027924;28;20029;-66
2022/03/08 04:15:55;;;;;;;5.07;3.58;;;2.90;57.80;;;;;;5028159;28;20040;-66
2022/03/08 04:18:21;;;;;;;6.35;3.40;;;2.90;57.90;;;;;;5027969;28;20025;-66
2022/03/08 04:20:46;;;;;;;4.40;2.92;;;2.90;58.00;;;;;;5010079;28;20111;-66
2022/03/08 04:23:12;;;;;;;6.45;4.55;;;2.90;58.10;;;;;;5009662;28;20124;-66
2022/03/08 04:25:38;;;;;;;5.28;3.60;;;2.90;58.40;;;;;;5024934;28;20049;-66
2022/03/08 04:28:05;;;;;;;5.50;3.17;;;2.80;58.30;;;;;;5027913;28;20037;-66
2022/03/08 04:30:31;;;;;;;5.38;3.78;;;2.80;58.50;;;;;;5027441;28;20025;-66
2022/03/08 04:32:57;;;;;;;5.13;3.53;;;2.80;58.80;;;;;;5020829;28;20036;-66
2022/03/08 04:35:23;;;;;;;5.45;3.38;;;2.80;58.80;;;;;;5027557;28;20502;-66
2022/03/08 04:37:50;;;;;;;5.70;3.67;;;2.80;58.60;;;;;;5027727;28;20029;-66
2022/03/08 04:40:15;;;;;;;5.75;3.63;;;2.80;58.60;;;;;;5025047;28;20021;-66
2022/03/08 04:42:42;;;;;;;6.80;4.03;;;2.70;58.60;;;;;;5027713;28;20091;-66
2022/03/08 04:45:10;;;;;;;5.68;3.33;;;2.70;58.80;;;;;;5027979;28;20116;-66
2022/03/08 04:47:37;;;;;;;5.28;3.70;;;2.70;58.80;;;;;;5024948;28;20102;-66
2022/03/08 04:50:10;;;;;;;5.55;3.55;;;2.70;58.80;;;;;;5028748;28;20049;-66
2022/03/08 04:52:36;;;;;;;6.03;3.58;;;2.70;58.90;;;;;;5031093;28;20041;-66
2022/03/08 04:55:03;;;;;;;5.45;2.97;;;2.70;58.80;;;;;;5031515;28;20420;-66
2022/03/08 04:57:29;;;;;;;5.00;3.40;;;2.70;58.80;;;;;;5025763;28;20014;-66
2022/03/08 04:59:54;;;;;;;4.60;3.10;;;2.70;58.80;;;;;;5028475;28;20051;-66
2022/03/08 05:02:20;;;;;;;5.47;3.20;;;2.70;58.70;;;;;;5030822;28;20493;-66
2022/03/08 05:04:45;;;;;;;6.57;4.03;;;2.60;58.80;;;;;;5031126;28;20481;-66
2022/03/08 05:07:11;;;;;;;5.80;3.50;;;2.60;59.00;;;;;;5030879;28;20029;-66
2022/03/08 05:09:36;;;;;;;5.82;3.53;;;2.60;59.00;;;;;;5013038;28;20032;-65
2022/03/08 05:12:02;;;;;;;4.63;3.30;;;2.60;59.00;;;;;;5031001;28;20097;-66
2022/03/08 05:14:28;;;;;;;5.43;3.42;;;2.60;59.00;;;;;;5028120;28;20029;-66
2022/03/08 05:16:53;;;;;;;5.43;3.60;;;2.60;59.10;;;;;;5012914;28;20381;-66
2022/03/08 05:19:19;;;;;;;5.45;2.90;;;2.60;59.20;;;;;;5030791;28;20017;-65
2022/03/08 05:21:45;;;;;;;6.35;3.28;;;2.60;59.10;;;;;;5030625;28;20025;-66
2022/03/08 05:24:10;;;;;;;5.22;3.88;;;2.60;59.20;;;;;;5030370;28;20029;-65
2022/03/08 05:26:39;;;;;;;7.00;4.20;;;2.50;59.30;;;;;;5030747;28;20021;-66
2022/03/08 05:29:07;;;;;;;5.37;3.80;;;2.50;59.50;;;;;;5028183;28;20071;-66
2022/03/08 05:31:33;;;;;;;5.18;3.70;;;2.50;59.60;;;;;;5030390;28;20068;-66
2022/03/08 05:33:58;;;;;;;5.53;3.38;;;2.50;59.50;;;;;;5030677;28;20053;-66
2022/03/08 05:36:24;;;;;;;4.43;3.05;;;2.50;59.40;;;;;;5012456;28;20136;-66
2022/03/08 05:38:50;;;;;;;4.50;3.33;;;2.50;59.30;;;;;;5030244;28;20037;-66
2022/03/08 05:41:15;;;;;;;5.63;3.58;;;2.50;59.30;;;;;;5030597;28;20404;-66
2022/03/08 05:43:41;;;;;;;5.07;3.15;;;2.40;59.40;;;;;;5024833;28;20041;-66
2022/03/08 05:46:06;;;;;;;5.97;3.42;;;2.40;59.50;;;;;;5030437;28;20446;-67
2022/03/08 05:48:32;;;;;;;4.88;3.53;;;2.40;59.50;;;;;;5029928;28;20457;-64
2022/03/08 05:50:58;;;;;;;4.68;2.85;;;2.40;59.50;;;;;;5030197;28;20036;-65
2022/03/08 05:53:23;;;;;;;4.35;3.20;;;2.40;59.30;;;;;;5012205;28;20041;-66
2022/03/08 05:55:49;;;;;;;6.55;3.20;;;2.40;59.30;;;;;;5027959;28;21164;-66
2022/03/08 05:58:15;;;;;;;6.00;3.47;;;2.40;59.20;;;;;;5027728;28;20029;-66
2022/03/08 06:00:40;;;;;;;5.78;3.90;;;2.40;59.40;;;;;;5029641;28;20377;-66
2022/03/08 06:03:06;;;;;;;7.45;4.63;;;2.40;59.70;;;;;;5026544;28;20026;-66
2022/03/08 06:05:31;;;;;;;6.10;3.83;;;2.40;59.80;;;;;;5029546;28;20143;-66
2022/03/08 06:07:57;;;;;;;4.03;3.00;;;2.30;59.80;;;;;;5029952;28;20412;-66
2022/03/08 06:10:22;;;;;;;4.78;3.42;;;2.30;59.90;;;;;;5027361;28;20025;-66
2022/03/08 06:12:48;;;;;;;4.93;3.58;;;2.30;59.80;;;;;;5027014;28;20038;-66
2022/03/08 06:15:13;;;;;;;4.28;3.20;;;2.30;60.00;;;;;;5029674;28;20068;-66
2022/03/08 06:17:39;;;;;;;5.25;3.33;;;2.30;60.00;;;;;;5029543;28;20030;-66
2022/03/08 06:20:05;;;;;;;6.13;4.30;;;2.30;60.00;;;;;;5029725;28;20084;-65
2022/03/08 06:22:31;;;;;;;5.32;3.35;;;2.30;60.10;;;;;;5023809;28;20021;-66
2022/03/08 06:24:56;;;;;;;5.80;3.90;;;2.30;60.10;;;;;;5029588;28;20032;-66
2022/03/08 06:27:22;;;;;;;8.98;4.80;;;2.30;60.20;;;;;;5029573;28;20021;-66
2022/03/08 06:29:51;;;;;;;7.88;4.63;;;2.20;60.70;;;;;;5030774;28;20052;-66
2022/03/08 06:32:17;;;;;;;6.68;3.85;;;2.20;60.90;;;;;;5033333;28;20025;-65
2022/03/08 06:34:42;;;;;;;4.95;3.67;;;2.20;60.90;;;;;;5032846;28;20473;-65
2022/03/08 06:37:08;;;;;;;5.47;3.80;;;2.20;60.70;;;;;;5032179;28;20105;-65
2022/03/08 06:39:34;;;;;;;7.05;4.07;;;2.20;60.80;;;;;;5032801;28;20104;-65
2022/03/08 06:41:59;;;;;;;5.17;3.83;;;2.20;60.80;;;;;;5032654;28;20097;-65
2022/03/08 06:44:25;;;;;;;6.32;3.90;;;2.20;60.90;;;;;;5032731;28;20269;-65
2022/03/08 06:46:50;;;;;;;5.57;3.70;;;2.20;60.70;;;;;;5033155;28;20037;-66
2022/03/08 06:49:16;;;;;;;6.38;4.53;;;2.30;60.60;;;;;;5015192;28;20422;-65
2022/03/08 06:51:41;;;;;;;8.05;4.43;;;2.30;60.60;;;;;;5032904;28;20091;-65
2022/03/08 06:54:08;;;;;;;6.85;4.55;;;2.30;60.60;;;;;;5015198;28;20076;-65
2022/03/08 06:56:34;;;;;;;9.70;5.05;;;2.30;60.90;;;;;;5032906;28;20022;-65
2022/03/08 06:59:04;;;;;;;7.10;4.68;;;2.30;60.90;;;;;;5032932;28;20021;-65
2022/03/08 07:01:29;;;;;;;7.18;4.13;;;2.30;60.80;;;;;;5032819;28;20032;-65
2022/03/08 07:03:55;;;;;;;9.65;5.38;;;2.40;60.70;;;;;;5032653;28;20393;-65
2022/03/08 07:06:21;;;;;;;8.00;4.35;;;2.40;60.80;;;;;;5032665;28;20500;-66
2022/03/08 07:08:46;;;;;;;7.22;4.97;;;2.40;60.60;;;;;;5032757;28;20385;-66
2022/03/08 07:11:13;;;;;;;8.32;4.78;;;2.50;60.60;;;;;;5032795;28;20052;-66
2022/03/08 07:13:39;;;;;;;7.72;4.60;;;2.50;60.50;;;;;;5031590;28;20025;-66
2022/03/08 07:16:05;;;;;;;5.80;3.97;;;2.50;60.30;;;;;;5032726;28;20025;-66
2022/03/08 07:18:31;;;;;;;6.38;4.40;;;2.60;60.20;;;;;;5032434;28;20030;-66
2022/03/08 07:20:56;;;;;;;7.35;4.97;;;2.60;60.00;;;;;;5014699;28;20396;-66
2022/03/08 07:23:23;;;;;;;8.20;4.72;;;2.70;59.80;;;;;;5031545;28;20473;-66
2022/03/08 07:25:49;;;;;;;7.38;5.15;;;2.70;59.60;;;;;;5015663;28;20586;-66
2022/03/08 07:28:14;;;;;;;7.55;4.90;;;2.80;59.60;;;;;;5032549;28;20056;-66
2022/03/08 07:30:40;;;;;;;6.28;4.47;;;2.90;59.50;;;;;;5011291;28;20555;-66
2022/03/08 07:33:06;;;;;;;8.13;5.47;;;2.90;59.40;;;;;;5030802;28;20448;-66
2022/03/08 07:35:31;;;;;;;7.97;4.97;;;3.00;59.40;;;;;;5030616;28;20552;-66
2022/03/08 07:37:57;;;;;;;8.93;4.85;;;3.10;59.10;;;;;;5030722;28;20101;-66
2022/03/08 07:40:22;;;;;;;7.32;4.43;;;3.10;58.80;;;;;;5021072;28;20503;-66
2022/03/08 07:42:48;;;;;;;6.90;4.55;;;3.20;58.60;;;;;;5030627;28;20029;-66
2022/03/08 07:45:13;;;;;;;7.47;4.55;;;3.30;58.40;;;;;;5030477;28;20049;-65
2022/03/08 07:47:39;;;;;;;9.30;5.25;;;3.30;58.00;;;;;;5018253;28;20033;-66
2022/03/08 07:50:05;;;;;;;7.03;4.55;;;3.40;58.30;;;;;;5030432;28;20068;-66
2022/03/08 07:52:31;;;;;;;9.65;5.05;;;3.50;57.60;;;;;;5031570;28;20030;-65
2022/03/08 07:54:57;;;;;;;6.70;4.45;;;3.60;57.90;;;;;;5030909;28;20022;-65
2022/03/08 07:57:22;;;;;;;8.32;5.45;;;3.60;57.70;;;;;;5030098;28;20025;-65
2022/03/08 07:59:48;;;;;;;6.85;5.10;;;3.70;57.00;;;;;;5031572;28;20034;-65
2022/03/08 08:02:14;;;;;;;7.07;5.20;;;3.70;57.40;;;;;;5031744;28;20084;-65
2022/03/08 08:04:39;;;;;;;7.82;5.10;;;3.80;57.30;;;;;;5031673;28;20097;-65
2022/03/08 08:07:05;;;;;;;6.72;4.78;;;3.80;57.00;;;;;;5030691;28;20521;-65
2022/03/08 08:09:31;;;;;;;9.88;5.00;;;3.90;56.90;;;;;;5029733;28;20447;-65
2022/03/08 08:11:56;;;;;;;8.20;5.50;;;3.90;57.20;;;;;;5031448;28;20030;-65
2022/03/08 08:14:22;;;;;;;9.27;5.30;;;4.00;57.10;;;;;;5029840;28;20056;-66
2022/03/08 08:16:47;;;;;;;8.45;5.95;;;4.00;56.30;;;;;;5028511;28;20064;-65
2022/03/08 08:19:13;;;;;;;8.25;5.20;;;4.10;56.80;;;;;;5030567;28;20112;-65
2022/03/08 08:21:38;;;;;;;8.63;4.80;;;4.20;56.50;;;;;;5026948;28;20032;-65
2022/03/08 08:24:04;;;;;;;9.07;5.60;;;4.20;56.80;;;;;;5028718;28;20025;-65
2022/03/08 08:26:30;;;;;;;7.90;5.30;;;4.20;56.20;;;;;;5029943;28;20053;-65
2022/03/08 08:28:56;;;;;;;10.40;5.57;;;4.30;56.40;;;;;;5032425;28;20091;-65
2022/03/08 08:31:23;;;;;;;7.63;4.95;;;4.30;56.40;;;;;;5031831;28;20029;-66
2022/03/08 08:33:49;;;;;;;7.53;5.13;;;4.40;56.50;;;;;;5017001;28;20018;-65
2022/03/08 08:36:15;;;;;;;9.43;5.20;;;4.40;56.90;;;;;;5027216;28;20041;-65
2022/03/08 08:38:41;;;;;;;11.23;5.80;;;4.50;55.90;;;;;;5032843;28;20033;-65
2022/03/08 08:41:06;;;;;;;10.23;5.78;;;4.60;56.20;;;;;;5031566;28;20431;-65
2022/03/08 08:43:32;;;;;;;9.00;5.28;;;4.60;56.10;;;;;;5032444;28;20033;-65
2022/03/08 08:45:58;;;;;;;8.65;5.43;;;4.70;55.90;;;;;;5032693;28;20080;-65
2022/03/08 08:48:23;;;;;;;7.30;5.55;;;4.70;56.30;;;;;;5032983;28;20053;-65
2022/03/08 08:50:49;;;;;;;8.85;5.68;;;4.70;56.10;;;;;;5033518;28;20401;-65
2022/03/08 08:53:14;;;;;;;8.02;5.07;;;4.80;56.20;;;;;;5033529;28;20025;-65
2022/03/08 08:55:40;;;;;;;7.22;5.40;;;4.90;55.40;;;;;;5033301;28;20374;-65
2022/03/08 08:58:06;;;;;;;8.35;5.28;;;4.90;55.60;;;;;;5033359;28;20040;-65
2022/03/08 09:00:32;;;;;;;7.75;5.03;;;5.00;55.60;;;;;;5026521;28;20071;-66
2022/03/08 09:02:57;;;;;;;10.48;6.43;;;5.10;55.30;;;;;;5033424;28;20365;-65
2022/03/08 09:05:23;;;;;;;8.73;5.22;;;5.10;55.30;;;;;;5032946;28;20029;-65
2022/03/08 09:07:49;;;;;;;6.28;4.93;;;5.20;54.90;;;;;;5034013;28;20029;-65
2022/03/08 09:10:15;;;;;;;8.68;5.15;;;5.30;55.40;;;;;;5034257;28;20033;-65
2022/03/08 09:12:43;;;;;;;9.40;6.10;;;5.30;54.80;;;;;;5034742;28;20034;-65
2022/03/08 09:15:09;;;;;;;11.25;5.82;;;5.30;55.50;;;;;;5034576;28;20021;-65
2022/03/08 09:17:37;;;;;;;8.98;5.60;;;5.40;55.00;;;;;;5034724;28;20091;-65
2022/03/08 09:20:04;;;;;;;7.53;6.25;;;5.50;54.90;;;;;;5035054;28;20049;-65
2022/03/08 09:22:30;;;;;;;10.65;5.72;;;5.50;54.50;;;;;;5034503;28;20037;-65
2022/03/08 09:24:55;;;;;;;8.40;5.50;;;5.60;54.20;;;;;;5034574;28;20025;-67
2022/03/08 09:27:21;;;;;;;8.45;5.80;;;5.60;54.40;;;;;;5034429;28;20026;-65
2022/03/08 09:29:47;;;;;;;5.85;4.70;;;5.70;54.60;;;;;;5034431;28;20044;-65
2022/03/08 09:32:12;;;;;;;9.10;5.82;;;5.80;55.00;;;;;;5016785;28;20049;-65
2022/03/08 09:34:39;;;;;;;9.90;5.30;;;5.90;54.80;;;;;;5034515;28;20025;-65
2022/03/08 09:37:06;;;;;;;6.07;4.70;;;6.00;53.70;;;;;;5034304;28;20365;-65
2022/03/08 09:39:32;;;;;;;7.38;4.60;;;6.00;53.30;;;;;;5034199;28;20473;-65
2022/03/08 09:41:58;;;;;;;8.88;4.95;;;6.10;51.80;;;;;;5034159;28;20033;-65
2022/03/08 09:44:24;;;;;;;8.10;4.88;;;6.20;52.30;;;;;;5033802;28;20120;-65
2022/03/08 09:46:50;;;;;;;6.97;4.78;;;6.20;52.60;;;;;;5034216;28;20176;-65
2022/03/08 09:49:16;;;;;;;9.85;4.63;;;6.40;52.80;;;;;;5033927;28;20053;-65
2022/03/08 09:51:42;;;;;;;6.70;4.53;;;6.50;51.10;;;;;;5034124;28;20033;-65
2022/03/08 09:54:09;;;;;;;8.30;4.68;;;6.60;51.40;;;;;;5034155;28;20578;-65
2022/03/08 09:56:35;;;;;;;6.50;4.10;;;6.70;49.90;;;;;;5033909;28;20252;-65
2022/03/08 09:59:01;;;;;;;8.68;4.35;;;6.80;50.70;;;;;;5034002;28;20112;-65
2022/03/08 10:01:27;;;;;;;9.73;5.95;;;6.90;49.50;;;;;;5034015;28;20102;-65
2022/03/08 10:03:53;;;;;;;6.10;4.50;;;7.10;49.50;;;;;;5033835;28;20028;-65
2022/03/08 10:06:19;;;;;;;5.35;4.15;;;7.10;49.00;;;;;;5033630;28;20025;-65
2022/03/08 10:08:45;;;;;;;11.57;3.78;;;7.30;48.00;;;;;;5033835;28;20029;-66
2022/03/08 10:11:14;;;;;;;8.80;4.45;;;7.40;47.60;;;;;;5033769;28;20392;-66
2022/03/08 10:13:44;;;;;;;6.20;3.90;;;7.50;46.60;;;;;;5033613;28;20036;-66
2022/03/08 10:16:24;;;;;;;4.93;3.67;;;7.60;46.90;;;;;;5033735;28;20038;-65
2022/03/08 10:18:57;;;;;;;7.53;3.50;;;7.70;45.20;;;;;;5015821;28;20029;-65
2022/03/08 10:21:34;;;;;;;5.72;3.55;;;7.80;45.40;;;;;;5033331;28;20423;-65
2022/03/08 10:24:03;;;;;;;4.63;3.65;;;7.80;44.50;;;;;;5033320;28;20028;-65
2022/03/08 10:26:32;;;;;;;4.70;3.42;;;8.00;44.80;;;;;;5033583;28;20026;-65
2022/03/08 10:28:59;;;;;;;6.85;3.60;;;8.10;44.80;;;;;;5033430;28;20366;-65
2022/03/08 10:31:25;;;;;;;7.13;3.95;;;8.30;44.60;;;;;;5033272;28;20025;-65
2022/03/08 10:33:51;;;;;;;6.15;3.72;;;8.50;44.50;;;;;;5033286;28;20063;-65
2022/03/08 10:36:23;;;;;;;5.43;3.10;;;8.60;43.40;;;;;;5033117;28;20052;-65
2022/03/08 10:39:27;;;;;;;4.75;2.92;;;8.70;43.90;;;;;;5033300;28;20021;-65
2022/03/08 10:41:56;;;;;;;10.93;3.15;;;9.30;42.40;;;;;;4952850;29;20027;-65
2022/03/08 10:44:39;;;;;;;5.57;3.70;;;10.20;40.60;;;;;;4952706;29;20035;-65
2022/03/08 10:47:11;;;;;;;7.45;2.85;;;12.30;38.20;;;;;;4984230;28;20032;-65
2022/03/08 10:49:59;;;;;;;4.95;3.05;;;14.20;36.00;;;;;;5032750;28;20045;-65
2022/03/08 10:52:27;;;;;;;7.00;3.10;;;15.50;33.90;;;;;;5032963;28;20033;-65
2022/03/08 10:54:52;;;;;;;5.15;2.85;;;16.40;32.50;;;;;;5032898;28;20143;-65
2022/03/08 10:57:18;;;;;;;3.58;2.70;;;17.10;30.90;;;;;;5032585;28;20540;-65
2022/03/08 10:59:54;;;;;;;4.15;2.67;;;18.00;30.10;;;;;;5030605;28;20026;-65
2022/03/08 11:02:22;;;;;;;5.00;2.20;;;18.80;29.10;;;;;;5029518;28;20037;-65
2022/03/08 11:05:04;;;;;;;4.78;2.67;;;19.20;28.80;;;;;;5029406;28;20031;-66
2022/03/08 11:07:30;;;;;;;5.75;2.70;;;19.20;27.80;;;;;;5020031;28;20448;-66
2022/03/08 11:09:56;;;;;;;3.90;2.05;;;18.30;29.00;;;;;;5031099;28;20025;-66
2022/03/08 11:12:22;;;;;;;3.75;2.72;;;19.00;29.50;;;;;;5031614;28;20396;-66
2022/03/08 11:14:48;;;;;;;3.00;2.20;;;20.60;27.90;;;;;;5032626;28;20029;-66
2022/03/08 11:17:13;;;;;;;4.07;2.67;;;21.00;27.60;;;;;;5032356;28;20563;-66
2022/03/08 11:19:39;;;;;;;4.00;2.85;;;21.30;25.90;;;;;;5032379;28;20108;-66
2022/03/08 11:22:05;;;;;;;3.70;2.92;;;20.30;27.10;;;;;;5032403;28;20500;-65
2022/03/08 11:24:32;;;;;;;6.68;2.47;;;19.70;27.40;;;;;;5025881;28;20021;-66
2022/03/08 11:26:59;;;;;;;6.22;2.97;;;20.00;27.80;;;;;;5032377;28;20537;-65
2022/03/08 11:29:28;;;;;;;4.43;2.60;;;19.70;27.50;;;;;;5032191;28;20117;-65
2022/03/08 11:31:58;;;;;;;7.32;3.05;;;19.30;28.00;;;;;;5031709;28;20044;-65
2022/03/08 11:34:33;;;;;;;4.90;2.58;;;19.70;28.00;;;;;;5030590;28;20028;-66
2022/03/08 11:37:09;;;;;;;4.80;2.97;;;19.50;27.50;;;;;;5031426;28;20029;-66
2022/03/08 11:39:39;;;;;;;3.65;2.60;;;19.40;27.90;;;;;;5030866;28;20029;-66
2022/03/08 11:42:26;;;;;;;3.10;2.53;;;19.70;27.20;;;;;;5029318;28;20101;-66
2022/03/08 11:45:08;;;;;;;3.58;2.65;;;19.60;26.60;;;;;;5029157;28;20056;-65
2022/03/08 11:47:43;;;;;;;3.20;2.53;;;19.10;27.70;;;;;;5028922;28;20056;-66
2022/03/08 11:50:31;;;;;;;4.28;3.45;;;19.70;27.60;;;;;;5028432;28;20068;-66
2022/03/08 11:53:08;;;;;;;4.78;3.05;;;19.70;27.20;;;;;;5030478;28;20021;-66
2022/03/08 11:55:44;;;;;;;4.22;2.65;;;19.50;27.70;;;;;;5030161;28;20024;-66
2022/03/08 11:58:11;;;;;;;3.10;2.72;;;20.80;27.30;;;;;;5028657;28;20020;-66
2022/03/08 12:00:42;;;;;;;5.63;3.03;;;21.10;26.50;;;;;;5028353;28;20056;-66
2022/03/08 12:03:16;;;;;;;4.57;2.78;;;20.80;26.40;;;;;;5026263;28;20033;-66
2022/03/08 12:05:47;;;;;;;4.70;3.13;;;19.90;27.00;;;;;;5026889;28;20485;-66
2022/03/08 12:08:21;;;;;;;5.18;3.45;;;20.50;27.10;;;;;;5027352;28;20484;-66
2022/03/08 12:10:48;;;;;;;4.93;3.05;;;20.60;26.90;;;;;;5027649;28;20018;-66
2022/03/08 12:13:15;;;;;;;4.55;2.90;;;20.70;27.00;;;;;;5028154;28;20056;-66
2022/03/08 12:16:05;;;;;;;6.32;3.30;;;21.00;26.50;;;;;;5026937;28;20575;-66
2022/03/08 12:18:34;;;;;;;4.53;3.45;;;19.70;27.30;;;;;;5026779;28;20029;-66
2022/03/08 12:21:18;;;;;;;5.60;3.53;;;19.70;27.40;;;;;;5027441;28;20044;-66
2022/03/08 12:23:52;;;;;;;4.65;3.33;;;20.00;26.70;;;;;;5027196;28;20079;-66
2022/03/08 12:26:36;;;;;;;5.88;3.40;;;19.20;27.10;;;;;;5027125;28;20581;-66
2022/03/08 12:29:17;;;;;;;7.78;3.70;;;19.10;27.70;;;;;;5026749;28;20025;-67
2022/03/08 12:32:06;;;;;;;8.68;3.63;;;18.90;27.70;;;;;;5026933;28;20017;-66
2022/03/08 12:34:45;;;;;;;5.30;3.35;;;18.60;28.00;;;;;;5029078;28;20022;-66
2022/03/08 12:37:10;;;;;;;9.10;3.50;;;19.00;28.30;;;;;;5028710;28;20481;-66
2022/03/08 12:39:49;;;;;;;4.82;3.75;;;19.70;27.80;;;;;;5030546;28;20040;-66
2022/03/08 12:42:22;;;;;;;6.30;3.08;;;19.70;27.80;;;;;;5029805;28;20030;-66
2022/03/08 12:45:15;;;;;;;5.35;3.35;;;20.10;28.20;;;;;;5031055;28;20026;-66
2022/03/08 12:47:44;;;;;;;4.28;3.20;;;21.00;27.50;;;;;;5031113;28;20147;-66
2022/03/08 12:50:38;;;;;;;3.90;2.95;;;21.50;26.80;;;;;;5031400;28;20054;-66
2022/03/08 12:53:09;;;;;;;4.10;3.50;;;21.80;26.90;;;;;;5031284;28;20041;-66
2022/03/08 12:55:41;;;;;;;4.20;3.15;;;21.00;26.30;;;;;;5031390;28;20106;-66